Time;durP1;ratioP1;P1;durP2;ratioP2;P2;SDS_P1;SDS_P2;PMS_P1;PMS_P2;Temp;Humidity;BMP_temperature;BMP_pressure;BME280_temperature;BME280_humidity;BME280_pressure;Samples;Min_cycle;Max_cycle;Signal;HPM_P1;HPM_P2
2022/05/02 00:02:19;;;;;;;14.05;7.50;;;;;;;8.89;60.69;101046.50;1754707;80;21481;-53
2022/05/02 00:04:46;;;;;;;10.72;6.70;;;;;;;8.97;60.46;101040.31;1761587;80;22045;-53
2022/05/02 00:07:12;;;;;;;15.85;8.70;;;;;;;9.01;60.34;101038.33;1768135;79;22370;-53
2022/05/02 00:09:40;;;;;;;12.43;7.95;;;;;;;9.02;60.30;101040.03;1758505;80;20999;-53
2022/05/02 00:12:08;;;;;;;12.55;7.05;;;;;;;8.98;60.30;101035.45;1760980;79;21115;-53
2022/05/02 00:14:34;;;;;;;11.33;7.47;;;;;;;8.93;59.93;101031.79;1762389;80;21253;-53
2022/05/02 00:17:02;;;;;;;12.05;7.10;;;;;;;8.92;59.80;101034.51;1758627;79;21034;-53
2022/05/02 00:19:29;;;;;;;11.63;6.95;;;;;;;8.92;59.70;101041.06;1760627;80;21049;-53
2022/05/02 00:21:55;;;;;;;12.85;7.17;;;;;;;8.90;59.61;101040.33;1760822;79;21183;-54
2022/05/02 00:24:22;;;;;;;11.38;7.47;;;;;;;8.87;59.68;101041.34;1759028;80;21142;-54
2022/05/02 00:26:48;;;;;;;13.08;8.00;;;;;;;8.87;59.81;101040.03;1771217;80;21062;-53
2022/05/02 00:29:15;;;;;;;11.28;8.10;;;;;;;8.91;59.77;101045.48;1767914;80;21181;-54
2022/05/02 00:31:42;;;;;;;13.98;7.60;;;;;;;8.92;59.60;101037.13;1730860;81;21047;-54
2022/05/02 00:34:09;;;;;;;11.12;6.78;;;;;;;8.92;59.75;101041.91;1773081;79;21038;-54
2022/05/02 00:36:35;;;;;;;10.82;6.55;;;;;;;8.95;59.65;101039.57;1810560;79;21107;-54
2022/05/02 00:39:01;;;;;;;11.40;6.08;;;;;;;9.02;59.29;101035.61;1770589;79;21027;-54
2022/05/02 00:41:28;;;;;;;9.25;6.05;;;;;;;9.09;58.82;101039.55;1771892;80;21106;-54
2022/05/02 00:43:55;;;;;;;11.57;6.78;;;;;;;9.15;58.21;101036.17;1779353;79;21004;-54
2022/05/02 00:46:23;;;;;;;13.03;6.47;;;;;;;9.15;58.00;101035.69;1770758;80;21086;-54
2022/05/02 00:48:50;;;;;;;10.93;6.30;;;;;;;9.16;58.25;101033.89;1769877;79;21184;-54
2022/05/02 00:51:17;;;;;;;10.43;6.83;;;;;;;9.14;58.53;101041.03;1788911;79;21118;-54
2022/05/02 00:53:49;;;;;;;10.50;6.42;;;;;;;9.10;58.65;101037.28;1771643;79;21604;-54
2022/05/02 00:56:16;;;;;;;11.15;6.83;;;;;;;9.07;58.57;101038.78;1771479;80;21496;-54
2022/05/02 00:58:43;;;;;;;10.35;6.17;;;;;;;9.07;58.37;101035.33;1760036;79;21454;-54
2022/05/02 01:01:09;;;;;;;10.93;7.03;;;;;;;9.04;58.46;101032.41;1755605;80;21536;-54
2022/05/02 01:03:36;;;;;;;12.47;7.53;;;;;;;9.02;58.93;101029.05;1770447;79;21531;-54
2022/05/02 01:08:48;;;;;;;12.88;8.05;;;;;;;8.92;59.69;101031.88;1752381;79;21121;-53
2022/05/02 01:11:15;;;;;;;13.28;7.65;;;;;;;8.86;59.91;101028.32;1734086;82;21048;-53
2022/05/02 01:13:47;;;;;;;13.20;7.60;;;;;;;8.79;60.04;101030.96;1755691;79;21055;-53
2022/05/02 01:16:21;;;;;;;14.15;7.20;;;;;;;8.73;60.34;101029.09;1767864;80;21117;-53
2022/05/02 01:18:51;;;;;;;11.12;7.17;;;;;;;8.69;60.61;101026.75;1759603;80;21019;-53
2022/05/02 01:21:23;;;;;;;10.20;6.62;;;;;;;8.71;60.72;101033.60;1771055;80;21624;-53
2022/05/02 01:23:52;;;;;;;10.40;6.55;;;;;;;8.74;60.73;101024.23;1764294;80;21043;-53
2022/05/02 01:26:19;;;;;;;10.93;7.03;;;;;;;8.77;60.75;101023.19;1770677;79;21113;-53
2022/05/02 01:28:51;;;;;;;13.98;7.53;;;;;;;8.79;60.81;101017.84;1750681;80;21533;-53
2022/05/02 01:31:21;;;;;;;10.15;7.28;;;;;;;8.82;60.75;101016.34;1752641;79;21035;-54
2022/05/02 01:33:49;;;;;;;11.20;7.12;;;;;;;8.81;60.59;101018.13;1788698;79;21060;-54
2022/05/02 01:36:17;;;;;;;12.05;7.90;;;;;;;8.77;60.51;101013.16;1761912;80;21047;-54
2022/05/02 01:38:43;;;;;;;11.30;7.12;;;;;;;8.72;60.53;101022.18;1752506;79;21857;-54
2022/05/02 01:41:10;;;;;;;10.65;6.55;;;;;;;8.67;60.47;101023.37;1749606;79;21715;-55
2022/05/02 01:43:38;;;;;;;11.50;6.87;;;;;;;8.62;60.50;101021.03;1760561;79;21043;-54
2022/05/02 01:46:07;;;;;;;12.30;6.35;;;;;;;8.57;60.50;101019.64;1748899;79;21071;-54
2022/05/02 01:48:34;;;;;;;12.78;6.90;;;;;;;8.48;60.47;101011.88;1766024;80;21012;-55
2022/05/02 01:51:01;;;;;;;10.53;6.08;;;;;;;8.42;60.53;101014.35;1772790;80;21133;-55
2022/05/02 01:53:27;;;;;;;10.58;6.78;;;;;;;8.37;60.64;101013.34;1764839;79;21500;-54
2022/05/02 01:55:54;;;;;;;9.83;6.37;;;;;;;8.34;60.66;101017.94;1761952;79;22329;-54
2022/05/02 01:58:21;;;;;;;12.07;7.28;;;;;;;8.31;60.80;101012.39;1768869;79;21568;-55
2022/05/02 02:00:48;;;;;;;11.00;6.53;;;;;;;8.34;60.87;101020.08;1762245;80;21155;-54
2022/05/02 02:03:15;;;;;;;11.00;6.45;;;;;;;8.40;61.02;101014.09;1756755;80;21138;-55
2022/05/02 02:05:50;;;;;;;12.58;6.95;;;;;;;8.47;61.36;101017.59;1756155;79;21084;-54
2022/05/02 02:08:27;;;;;;;9.68;6.42;;;;;;;8.54;61.58;101015.45;1755788;80;21102;-53
2022/05/02 02:10:58;;;;;;;11.70;7.00;;;;;;;8.57;61.62;101017.02;1762447;80;21040;-53
2022/05/02 02:13:24;;;;;;;11.90;7.37;;;;;;;8.55;61.72;101017.95;1769506;79;21093;-54
2022/05/02 02:15:52;;;;;;;11.20;6.83;;;;;;;8.51;61.68;101013.84;1762993;79;21123;-54
2022/05/02 02:18:18;;;;;;;10.32;7.03;;;;;;;8.48;61.77;101019.27;1756988;80;21003;-54
2022/05/02 02:20:47;;;;;;;12.45;6.58;;;;;;;8.47;61.86;101015.42;1764792;79;21122;-53
2022/05/02 02:23:14;;;;;;;11.12;6.90;;;;;;;8.42;61.82;101014.35;1756665;80;21071;-53
2022/05/02 02:25:42;;;;;;;11.30;6.78;;;;;;;8.38;61.76;101008.93;1759991;80;21073;-53
2022/05/02 02:28:08;;;;;;;10.75;7.03;;;;;;;8.33;61.83;101011.83;1771354;79;21134;-53
2022/05/02 02:30:36;;;;;;;11.05;7.47;;;;;;;8.28;62.03;101012.58;1701778;82;21032;-53
2022/05/02 02:33:02;;;;;;;9.20;6.12;;;;;;;8.26;62.19;101005.75;1773280;79;21084;-53
2022/05/02 02:35:29;;;;;;;10.13;6.45;;;;;;;8.29;62.28;101011.66;1764756;80;21495;-53
2022/05/02 02:37:56;;;;;;;11.55;6.90;;;;;;;8.36;62.29;101012.12;1767007;80;21692;-53
2022/05/02 02:40:22;;;;;;;12.47;6.70;;;;;;;8.46;62.32;101016.37;1768521;80;21243;-53
2022/05/02 02:42:49;;;;;;;13.88;6.90;;;;;;;8.51;62.37;101011.22;1771788;79;21098;-53
2022/05/02 02:45:15;;;;;;;11.68;6.60;;;;;;;8.52;62.47;101015.98;1776561;80;20993;-53
2022/05/02 02:47:43;;;;;;;11.68;6.87;;;;;;;8.50;62.58;101011.30;1770464;79;21548;-53
2022/05/02 02:50:10;;;;;;;10.72;7.40;;;;;;;8.48;62.72;101013.19;1764472;79;21022;-53
2022/05/02 02:52:37;;;;;;;8.70;6.22;;;;;;;8.45;62.79;101010.27;1769231;79;21147;-54
2022/05/02 02:55:05;;;;;;;10.20;6.33;;;;;;;8.43;62.81;101016.08;1764036;80;21027;-52
2022/05/02 02:57:33;;;;;;;10.23;6.67;;;;;;;8.41;62.76;101017.09;1797127;79;21022;-53
2022/05/02 03:00:00;;;;;;;11.45;6.65;;;;;;;8.37;62.84;101017.28;1783220;79;21118;-54
2022/05/02 03:02:26;;;;;;;12.30;6.53;;;;;;;8.34;62.96;101014.84;1780019;79;21014;-54
2022/05/02 03:07:39;;;;;;;;;;;;;;;8.29;63.36;101016.89;1761226;79;21036;-54
2022/05/02 03:10:07;;;;;;;10.68;6.00;;;;;;;8.30;63.53;101015.11;1766033;80;20466;-54
2022/05/02 03:12:33;;;;;;;9.28;5.60;;;;;;;8.25;63.63;101016.69;1771998;79;21043;-54
2022/05/02 03:15:00;;;;;;;10.60;6.20;;;;;;;8.25;63.54;101021.93;1772103;80;21522;-53
2022/05/02 03:17:26;;;;;;;10.50;6.30;;;;;;;8.26;63.21;101024.11;1769827;79;21651;-53
2022/05/02 03:19:53;;;;;;;10.35;6.03;;;;;;;8.24;63.16;101026.82;1774137;79;21004;-54
2022/05/02 03:22:19;;;;;;;11.35;6.58;;;;;;;8.23;63.13;101020.35;1772167;79;21038;-53
2022/05/02 03:24:46;;;;;;;9.33;6.08;;;;;;;8.24;63.04;101025.51;1732432;82;21049;-54
2022/05/02 03:27:12;;;;;;;11.93;7.10;;;;;;;8.25;62.85;101025.03;1766951;80;21081;-53
2022/05/02 03:29:39;;;;;;;9.30;6.17;;;;;;;8.23;62.84;101022.97;1763983;80;21076;-54
2022/05/02 03:32:06;;;;;;;9.25;6.42;;;;;;;8.23;62.78;101029.53;1756337;80;20997;-53
2022/05/02 03:34:33;;;;;;;10.95;6.20;;;;;;;8.22;62.79;101027.83;1752478;80;21056;-53
2022/05/02 03:37:00;;;;;;;12.33;6.70;;;;;;;8.19;62.89;101024.47;1745297;79;21066;-54
2022/05/02 03:39:27;;;;;;;10.10;6.75;;;;;;;8.21;62.97;101029.62;1754136;79;21122;-53
2022/05/02 03:41:53;;;;;;;9.85;6.30;;;;;;;8.22;63.12;101023.45;1762138;79;21162;-52
2022/05/02 03:45:34;;;;;;;9.98;6.35;;;;;;;8.36;63.29;101030.00;1794066;79;22702;-54
2022/05/02 03:48:01;;;;;;;10.85;7.03;;;;;;;8.46;63.11;101033.42;1748927;81;21054;-54
2022/05/02 03:50:28;;;;;;;10.40;6.62;;;;;;;8.56;63.00;101030.61;1755069;80;21148;-54
2022/05/02 03:52:54;;;;;;;10.65;6.50;;;;;;;8.65;63.04;101040.53;1753623;81;20996;-54
2022/05/02 03:55:21;;;;;;;12.98;6.58;;;;;;;8.74;62.98;101039.97;1753991;80;21000;-54
2022/05/02 03:57:48;;;;;;;11.95;6.58;;;;;;;8.81;62.96;101040.44;1753451;81;21042;-54
2022/05/02 04:00:15;;;;;;;11.12;7.05;;;;;;;8.89;62.90;101038.19;1753692;80;21091;-54
2022/05/02 04:02:42;;;;;;;10.68;7.00;;;;;;;8.95;63.06;101036.95;1754261;80;21111;-54
2022/05/02 04:05:09;;;;;;;11.10;6.60;;;;;;;9.01;63.30;101036.56;1753734;80;21007;-54
2022/05/02 04:07:36;;;;;;;10.60;6.85;;;;;;;9.08;63.67;101043.11;1754331;81;21062;-54
2022/05/02 04:10:04;;;;;;;10.90;6.17;;;;;;;9.16;64.49;101045.71;1718422;81;21101;-53
2022/05/02 04:12:39;;;;;;;11.90;6.15;;;;;;;9.26;65.25;101040.24;1715249;83;21942;-53
2022/05/02 04:15:09;;;;;;;8.25;5.33;;;;;;;9.40;65.29;101045.95;1716923;83;21271;-53
2022/05/02 04:17:36;;;;;;;9.30;5.35;;;;;;;9.53;65.27;101042.89;1719116;82;21079;-54
2022/05/02 04:20:04;;;;;;;10.72;6.65;;;;;;;9.65;65.20;101038.62;1716541;83;21098;-54
2022/05/02 04:22:31;;;;;;;9.43;6.33;;;;;;;9.76;65.03;101041.36;1714127;83;21069;-54
2022/05/02 04:24:57;;;;;;;10.78;5.87;;;;;;;9.85;64.93;101044.71;1718361;82;21548;-54
2022/05/02 04:27:24;;;;;;;12.73;6.60;;;;;;;9.93;64.80;101047.30;1716580;83;21582;-54
2022/05/02 04:29:50;;;;;;;11.10;6.87;;;;;;;10.01;64.58;101046.31;1717429;81;21060;-54
2022/05/02 04:32:17;;;;;;;9.65;6.28;;;;;;;10.08;64.56;101046.73;1718529;83;21033;-54
2022/05/02 04:34:43;;;;;;;12.00;6.80;;;;;;;10.11;64.57;101045.22;1719518;82;21591;-54
2022/05/02 04:37:10;;;;;;;11.83;6.28;;;;;;;10.16;64.46;101044.44;1720699;83;21126;-54
2022/05/02 04:39:37;;;;;;;10.95;6.10;;;;;;;10.19;64.11;101047.70;1715516;82;21576;-54
2022/05/02 04:42:05;;;;;;;8.05;4.62;;;;;;;10.25;63.96;101050.86;1719666;83;21559;-54
2022/05/02 04:44:32;;;;;;;9.18;4.85;;;;;;;10.31;63.39;101047.34;1712491;83;21639;-54
2022/05/02 04:46:59;;;;;;;8.65;4.72;;;;;;;10.44;61.97;101042.12;1703404;83;21078;-54
2022/05/02 04:49:25;;;;;;;9.90;4.37;;;;;;;10.53;60.73;101042.78;1704838;82;21122;-54
2022/05/02 04:51:52;;;;;;;7.35;4.62;;;;;;;10.63;59.29;101043.47;1697589;83;21112;-54
2022/05/02 04:54:19;;;;;;;6.92;3.65;;;;;;;10.71;58.10;101042.47;1689611;83;21510;-54
2022/05/02 04:56:45;;;;;;;7.67;4.08;;;;;;;10.77;57.05;101037.58;1704370;83;21014;-54
2022/05/02 04:59:11;;;;;;;9.18;4.17;;;;;;;10.85;56.31;101042.31;1703993;83;21020;-54
2022/05/02 05:01:38;;;;;;;8.95;3.60;;;;;;;10.91;55.88;101035.77;1707567;83;21254;-54
2022/05/02 05:04:04;;;;;;;8.73;3.77;;;;;;;10.98;55.50;101037.03;1698690;83;21103;-54
2022/05/02 05:06:31;;;;;;;6.75;4.10;;;;;;;11.02;54.59;101033.70;1701040;83;21012;-54
2022/05/02 05:08:58;;;;;;;8.40;3.60;;;;;;;11.05;53.64;101029.53;1701103;83;21043;-54
2022/05/02 05:12:02;;;;;;;6.87;3.35;;;;;;;11.06;51.48;101025.94;1703061;83;21055;-54
2022/05/02 05:18:11;;;;;;;7.37;3.27;;;;;;;11.10;50.73;101030.05;1704064;83;21213;-53
2022/05/02 05:20:59;;;;;;;6.80;4.03;;;;;;;11.10;49.70;101028.73;1700254;83;21492;-54
2022/05/02 05:24:04;;;;;;;7.10;4.00;;;;;;;11.14;49.22;101027.06;1700740;83;21101;-53
2022/05/02 05:26:48;;;;;;;6.30;3.27;;;;;;;11.20;49.46;101025.80;1702534;82;21043;-53
2022/05/02 05:29:49;;;;;;;6.37;3.55;;;;;;;11.27;48.65;101027.50;1704434;83;21602;-53
2022/05/02 05:32:45;;;;;;;9.35;3.55;;;;;;;11.34;48.61;101023.46;1685895;83;21286;-53
2022/05/02 05:35:25;;;;;;;6.47;3.42;;;;;;;11.41;48.31;101030.45;1693467;83;21016;-54
2022/05/02 05:38:29;;;;;;;7.37;3.42;;;;;;;11.50;48.17;101025.83;1691626;84;21536;-53
2022/05/02 05:41:01;;;;;;;8.68;4.30;;;;;;;11.57;47.69;101024.41;1703893;83;21529;-54
2022/05/02 05:44:10;;;;;;;5.80;2.37;;;;;;;11.68;47.39;101029.73;1703156;83;21070;-53
2022/05/02 05:47:05;;;;;;;7.42;2.87;;;;;;;11.78;47.16;101025.08;1710530;83;22513;-52
2022/05/02 05:49:47;;;;;;;5.78;2.40;;;;;;;11.90;46.48;101034.24;1708879;83;21028;-53
2022/05/02 05:52:54;;;;;;;5.37;2.60;;;;;;;12.02;45.71;101029.00;1704057;82;21028;-53
2022/05/02 05:55:58;;;;;;;;;;;;;;;12.12;45.54;101027.83;1702200;83;21623;-53
2022/05/02 05:58:45;;;;;;;5.33;2.25;;;;;;;12.26;45.35;101028.46;1700771;83;20200;-52
2022/05/02 06:01:11;;;;;;;6.08;2.65;;;;;;;12.36;44.91;101029.09;1672834;84;21176;-53
2022/05/02 06:03:51;;;;;;;5.92;2.33;;;;;;;12.48;44.22;101026.80;1702961;83;21075;-53
2022/05/02 06:06:18;;;;;;;4.62;2.30;;;;;;;12.60;43.82;101031.61;1696350;83;21115;-53
2022/05/02 06:08:46;;;;;;;5.50;2.70;;;;;;;12.74;43.35;101027.88;1702923;83;22099;-52
2022/05/02 06:11:12;;;;;;;8.08;3.67;;;;;;;12.85;45.12;101033.16;1702566;83;21513;-52
2022/05/02 06:13:39;;;;;;;5.70;2.50;;;;;;;12.95;45.65;101031.45;1704023;83;22440;-53
2022/05/02 06:18:52;;;;;;;6.62;2.60;;;;;;;13.14;45.01;101028.66;1701152;83;21071;-53
2022/05/02 06:21:22;;;;;;;6.87;2.98;;;;;;;13.22;44.11;101026.24;1715481;82;21007;-53
2022/05/02 06:23:54;;;;;;;5.50;2.20;;;;;;;13.31;43.95;101031.25;1731883;81;21083;-53
2022/05/02 06:26:23;;;;;;;4.45;1.85;;;;;;;13.41;43.60;101030.89;1736118;80;21549;-53
2022/05/02 06:28:50;;;;;;;3.80;1.65;;;;;;;13.52;41.56;101034.83;1686069;83;21079;-53
2022/05/02 06:31:24;;;;;;;4.15;1.62;;;;;;;13.68;40.75;101019.02;1699906;82;21095;-53
2022/05/02 06:33:50;;;;;;;5.42;1.62;;;;;;;13.85;40.78;101021.11;1745366;81;21009;-53
2022/05/02 06:36:56;;;;;;;5.15;1.55;;;;;;;13.99;40.63;101016.46;1700369;82;21066;-55
2022/05/02 06:40:01;;;;;;;6.57;1.90;;;;;;;14.09;40.00;101011.57;1705535;82;21539;-53
2022/05/02 06:42:39;;;;;;;3.98;1.82;;;;;;;14.24;39.79;101012.54;1741998;81;21442;-53
2022/05/02 06:45:20;;;;;;;4.92;1.82;;;;;;;14.40;38.25;101018.20;1743058;81;21047;-53
2022/05/02 06:48:05;;;;;;;4.58;1.67;;;;;;;14.56;37.29;101012.89;1714148;82;20995;-54
2022/05/02 06:50:33;;;;;;;6.20;1.70;;;;;;;14.76;36.80;101008.54;1683289;82;21112;-52
2022/05/02 06:53:37;;;;;;;5.40;2.00;;;;;;;14.94;37.57;101005.59;1717437;82;22060;-53
2022/05/02 06:56:11;;;;;;;4.53;1.32;;;;;;;15.05;36.72;101001.50;1714445;82;21096;-54
2022/05/02 06:58:49;;;;;;;4.50;1.70;;;;;;;15.18;37.18;100995.09;1718017;83;21578;-53
2022/05/02 07:01:49;;;;;;;4.28;1.32;;;;;;;15.30;36.25;100998.45;1692042;82;21640;-54
2022/05/02 07:04:35;;;;;;;4.60;1.50;;;;;;;15.38;36.28;100995.95;1690770;84;21103;-53
2022/05/02 07:08:01;;;;;;;4.65;1.45;;;;;;;15.49;35.32;100994.50;1691127;84;21175;-53
2022/05/02 07:10:34;;;;;;;4.17;1.30;;;;;;;15.60;33.97;100986.41;1694895;84;21126;-52
2022/05/02 07:13:37;;;;;;;3.80;1.52;;;;;;;15.73;35.36;100992.72;1673878;84;21004;-54
2022/05/02 07:16:23;;;;;;;7.50;1.50;;;;;;;15.87;34.89;100992.83;1706593;83;21084;-52
2022/05/02 07:19:28;;;;;;;5.00;1.70;;;;;;;15.97;33.80;100999.45;1703748;83;24934;-53
2022/05/02 07:22:04;;;;;;;3.67;1.25;;;;;;;16.01;32.78;100994.69;1693209;83;21926;-54
2022/05/02 07:25:07;;;;;;;4.00;1.37;;;;;;;16.04;33.23;100987.73;1705971;83;21128;-53
2022/05/02 07:27:45;;;;;;;2.80;0.80;;;;;;;16.08;33.50;100988.64;1703378;83;21532;-54
2022/05/02 07:30:12;;;;;;;3.17;1.22;;;;;;;16.14;32.57;100989.41;1703758;83;21112;-55
2022/05/02 07:32:39;;;;;;;4.70;1.40;;;;;;;16.21;33.00;100996.80;1706629;83;20996;-54
2022/05/02 07:35:07;;;;;;;4.70;1.32;;;;;;;16.25;32.64;100992.86;1705317;83;21146;-53
2022/05/02 07:37:35;;;;;;;4.42;1.20;;;;;;;16.31;31.95;100994.95;1706299;83;21603;-54
2022/05/02 07:40:02;;;;;;;3.10;1.20;;;;;;;16.38;32.42;100993.88;1703568;83;21596;-55
2022/05/02 07:42:29;;;;;;;3.62;1.42;;;;;;;16.43;32.61;100991.61;1706762;83;21052;-53
2022/05/02 07:44:56;;;;;;;3.92;1.32;;;;;;;16.49;32.88;100989.21;1708913;82;21129;-54
2022/05/02 07:47:24;;;;;;;4.78;1.52;;;;;;;16.56;32.97;100993.45;1698322;83;21145;-53
2022/05/02 07:49:51;;;;;;;3.75;1.50;;;;;;;16.62;32.44;100987.52;1685724;84;22220;-53
2022/05/02 07:52:23;;;;;;;4.03;1.40;;;;;;;16.68;31.98;100987.45;1689554;84;21008;-53
2022/05/02 07:54:50;;;;;;;3.52;1.35;;;;;;;16.71;31.74;100981.84;1708801;82;21063;-53
2022/05/02 07:57:19;;;;;;;2.52;1.20;;;;;;;16.78;32.28;100980.25;1701013;83;21029;-53
2022/05/02 07:59:46;;;;;;;4.10;1.42;;;;;;;16.86;31.73;100979.52;1702984;84;21164;-53
2022/05/02 08:02:14;;;;;;;4.80;1.65;;;;;;;16.97;32.06;100979.31;1702082;83;21063;-54
2022/05/02 08:04:42;;;;;;;3.98;1.67;;;;;;;17.09;32.25;100977.28;1668556;84;21537;-52
2022/05/02 08:07:16;;;;;;;3.77;1.40;;;;;;;17.17;31.81;100964.57;1683240;83;21015;-54
2022/05/02 08:10:24;;;;;;;6.75;1.52;;;;;;;17.23;31.78;100963.94;1703529;83;21596;-54
2022/05/02 08:12:59;;;;;;;3.72;1.42;;;;;;;17.34;31.59;100962.89;1712512;82;21791;-53
2022/05/02 08:15:34;;;;;;;3.52;1.32;;;;;;;17.45;32.81;100966.15;1712896;83;20908;-54
2022/05/02 08:18:38;;;;;;;4.58;1.70;;;;;;;17.53;31.85;100965.36;1706434;83;21548;-54
2022/05/02 08:21:15;;;;;;;4.70;1.42;;;;;;;17.63;32.27;100969.27;1744181;80;21005;-54
2022/05/02 08:27:19;;;;;;;5.78;1.37;;;;;;;17.75;30.43;100961.87;1741116;80;21810;-53
2022/05/02 08:30:05;;;;;;;3.30;1.40;;;;;;;17.82;30.22;100954.95;1748805;80;21024;-54
2022/05/02 08:33:08;;;;;;;4.55;1.47;;;;;;;17.87;31.03;100954.02;1697120;82;21050;-52
2022/05/02 08:35:59;;;;;;;3.52;1.37;;;;;;;17.95;30.99;100954.55;1685720;85;21030;-54
2022/05/02 08:38:49;;;;;;;6.20;1.52;;;;;;;18.06;30.02;100949.47;1726571;82;21618;-53
2022/05/02 08:41:30;;;;;;;3.12;1.30;;;;;;;18.18;29.87;100952.19;1748736;81;21199;-52
2022/05/02 08:44:33;;;;;;;5.87;1.80;;;;;;;18.27;29.42;100944.55;1747641;80;21541;-53
2022/05/02 08:47:31;;;;;;;4.37;1.75;;;;;;;18.35;29.80;100941.94;1653217;84;21123;-52
2022/05/02 08:50:22;;;;;;;3.65;1.30;;;;;;;18.48;28.79;100942.83;1703259;82;21102;-52
2022/05/02 08:53:24;;;;;;;5.17;2.30;;;;;;;18.60;30.05;100943.37;1708824;82;21054;-52
2022/05/02 08:56:09;;;;;;;4.65;1.98;;;;;;;18.76;29.25;100937.23;1705223;82;21248;-53
2022/05/02 08:59:14;;;;;;;3.83;1.50;;;;;;;18.86;28.75;100938.45;1706659;82;21071;-53
2022/05/02 09:02:11;;;;;;;4.42;1.40;;;;;;;18.88;28.68;100939.16;1706903;82;22410;-54
2022/05/02 09:05:27;;;;;;;4.37;1.75;;;;;;;18.85;29.06;100928.30;1705853;83;21042;-53
2022/05/02 09:08:21;;;;;;;6.80;2.15;;;;;;;18.88;29.41;100927.16;1701436;82;21098;-53
2022/05/02 09:11:34;;;;;;;9.48;2.08;;;;;;;19.01;30.23;100922.66;1682048;83;21184;-53
2022/05/02 09:14:33;;;;;;;3.90;1.62;;;;;;;19.10;28.19;100911.83;1707304;83;21101;-53
2022/05/02 09:17:24;;;;;;;9.05;1.70;;;;;;;19.17;28.06;100908.52;1705780;82;21264;-54
2022/05/02 09:20:14;;;;;;;3.77;1.42;;;;;;;19.22;29.28;100904.84;1706274;82;21046;-53
2022/05/02 09:23:15;;;;;;;3.75;1.45;;;;;;;19.23;26.99;100905.16;1705962;82;21050;-53
2022/05/02 09:25:50;;;;;;;3.37;1.37;;;;;;;19.19;27.26;100909.17;1714926;82;21880;-53
2022/05/02 09:28:38;;;;;;;3.37;1.40;;;;;;;19.18;28.45;100901.68;1706443;82;21075;-53
2022/05/02 09:31:49;;;;;;;3.33;1.37;;;;;;;19.22;29.13;100907.00;1665236;82;21054;-53
2022/05/02 09:34:36;;;;;;;5.00;1.65;;;;;;;19.25;29.44;100897.84;1710881;82;21086;-52
2022/05/02 09:37:06;;;;;;;3.12;1.12;;;;;;;19.29;29.10;100895.16;1684449;82;21086;-53
2022/05/02 09:39:47;;;;;;;4.37;1.55;;;;;;;19.31;28.97;100893.16;1707033;83;21246;-53
2022/05/02 09:42:36;;;;;;;3.25;1.50;;;;;;;19.39;29.12;100885.66;1703969;82;21035;-53
2022/05/02 09:51:53;;;;;;;4.62;1.82;;;;;;;19.93;28.36;100872.55;1744218;82;20983;-54
2022/05/02 09:57:46;;;;;;;3.37;1.35;;;;;;;20.28;28.06;100866.91;1746868;81;21057;-53
2022/05/02 10:03:01;;;;;;;;;;;;;;;20.45;27.97;100862.30;1744749;81;21060;-53
2022/05/02 10:05:32;;;;;;;3.35;1.30;;;;;;;20.62;28.94;100863.03;1739250;81;20185;-53
2022/05/02 10:08:08;;;;;;;3.70;1.20;;;;;;;20.69;27.09;100858.66;1733855;82;21031;-53
2022/05/02 10:10:44;;;;;;;4.17;1.30;;;;;;;20.77;27.10;100852.74;1745263;82;21267;-53
2022/05/02 10:13:25;;;;;;;3.95;1.70;;;;;;;20.85;27.41;100850.52;1704467;82;21061;-53
2022/05/02 10:16:12;;;;;;;6.55;3.20;;;;;;;20.88;27.11;100852.84;1746230;82;21082;-53
2022/05/02 10:19:09;;;;;;;6.00;3.52;;;;;;;20.88;28.10;100850.66;1742623;81;21565;-52
2022/05/02 10:22:08;;;;;;;5.37;1.82;;;;;;;20.87;28.09;100843.66;1732858;81;21106;-53
2022/05/02 10:24:52;;;;;;;6.00;1.80;;;;;;;20.82;27.63;100846.86;1745754;82;21053;-54
2022/05/02 10:27:25;;;;;;;4.25;1.50;;;;;;;20.71;25.78;100853.96;1740254;82;20987;-54
2022/05/02 10:30:11;;;;;;;3.70;1.57;;;;;;;20.63;25.84;100843.31;1726988;81;21071;-54
2022/05/02 10:32:56;;;;;;;3.90;1.50;;;;;;;20.57;25.15;100841.66;1742309;81;21088;-53
2022/05/02 10:35:26;;;;;;;5.12;1.62;;;;;;;20.58;25.64;100843.33;1739242;81;21804;-53
2022/05/02 10:38:02;;;;;;;5.17;1.50;;;;;;;20.66;25.26;100838.95;1740016;81;21035;-53
2022/05/02 10:40:39;;;;;;;3.87;1.67;;;;;;;20.76;25.65;100832.86;1743444;82;21071;-53
2022/05/02 10:43:08;;;;;;;4.10;1.60;;;;;;;20.92;26.39;100831.41;1732480;81;21029;-54
2022/05/02 10:45:39;;;;;;;3.55;1.50;;;;;;;21.04;25.20;100828.30;1743863;82;21081;-53
2022/05/02 10:48:29;;;;;;;4.03;1.70;;;;;;;21.05;25.50;100825.45;1744734;81;21863;-53
2022/05/02 10:51:16;;;;;;;4.35;1.80;;;;;;;21.05;26.28;100824.11;1742023;82;21439;-53
2022/05/02 10:54:04;;;;;;;3.62;1.62;;;;;;;21.06;26.09;100823.59;1744258;81;21121;-53
2022/05/02 10:56:48;;;;;;;4.50;1.90;;;;;;;21.03;26.23;100819.94;1745070;81;21071;-52
2022/05/02 10:59:15;;;;;;;4.40;1.85;;;;;;;21.03;26.36;100817.27;1742840;81;20982;-54
2022/05/02 11:02:22;;;;;;;4.35;1.67;;;;;;;21.01;26.50;100813.43;1744970;82;21823;-54
2022/05/02 11:05:03;;;;;;;4.12;1.47;;;;;;;20.98;26.60;100805.80;1739865;81;21105;-53
2022/05/02 11:07:44;;;;;;;3.37;1.40;;;;;;;20.95;26.83;100802.96;1739893;81;21539;-54
2022/05/02 11:10:13;;;;;;;4.05;1.52;;;;;;;20.89;26.80;100798.84;1744235;82;21097;-53
2022/05/02 11:12:54;;;;;;;4.78;1.85;;;;;;;20.87;27.07;100795.52;1740457;81;21022;-53
2022/05/02 11:15:25;;;;;;;4.25;1.80;;;;;;;20.81;27.13;100789.03;1747554;81;21890;-53
2022/05/02 11:17:57;;;;;;;3.45;1.45;;;;;;;20.79;27.96;100792.39;1741300;81;21085;-53
2022/05/02 11:20:46;;;;;;;3.45;1.50;;;;;;;20.79;28.45;100787.05;1746505;82;21053;-53
2022/05/02 11:23:40;;;;;;;4.10;1.30;;;;;;;20.86;28.35;100793.33;1744453;81;21029;-52
2022/05/02 11:26:33;;;;;;;5.08;1.60;;;;;;;20.93;27.60;100791.62;1721280;81;21085;-53
2022/05/02 11:29:12;;;;;;;4.70;1.72;;;;;;;20.97;26.23;100776.03;1703896;82;21142;-53
2022/05/02 11:32:02;;;;;;;5.03;1.80;;;;;;;20.97;25.09;100782.72;1739929;82;21656;-53
2022/05/02 11:34:48;;;;;;;3.92;1.30;;;;;;;20.95;25.25;100783.41;1739936;81;21060;-53
2022/05/02 11:37:26;;;;;;;4.20;1.30;;;;;;;20.91;25.94;100781.61;1741994;81;21037;-53
2022/05/02 11:39:57;;;;;;;3.62;1.77;;;;;;;20.94;25.99;100771.04;1741024;82;21078;-54
2022/05/02 11:42:27;;;;;;;3.25;1.50;;;;;;;21.01;26.64;100767.95;1748086;81;21065;-53
2022/05/02 11:45:11;;;;;;;5.45;1.62;;;;;;;21.14;27.26;100761.47;1735927;82;22007;-52
2022/05/02 11:48:06;;;;;;;4.40;1.62;;;;;;;21.33;27.00;100761.45;1746597;80;21038;-52
2022/05/02 11:50:51;;;;;;;6.92;1.92;;;;;;;21.44;26.84;100756.66;1752144;81;21076;-53
2022/05/02 11:53:16;;;;;;;5.12;1.72;;;;;;;21.47;26.20;100753.64;1753396;80;21121;-53
2022/05/02 11:55:47;;;;;;;6.33;1.50;;;;;;;21.45;25.54;100752.45;1719624;82;21898;-53
2022/05/02 11:58:26;;;;;;;3.92;1.67;;;;;;;21.45;26.02;100751.60;1715064;82;21042;-53
2022/05/02 12:01:00;;;;;;;4.47;1.95;;;;;;;21.43;26.44;100748.28;1691411;82;20981;-53
2022/05/02 12:03:26;;;;;;;4.12;1.80;;;;;;;21.45;25.68;100750.27;1715852;82;21125;-53
2022/05/02 12:05:55;;;;;;;3.05;1.25;;;;;;;21.43;25.04;100740.25;1704997;83;21045;-55
2022/05/02 12:08:34;;;;;;;4.12;1.80;;;;;;;21.41;24.43;100739.62;1709104;82;21105;-53
2022/05/02 12:11:10;;;;;;;3.85;1.62;;;;;;;21.40;24.56;100726.75;1692070;82;21878;-53
2022/05/02 12:13:42;;;;;;;4.85;1.32;;;;;;;21.41;24.85;100735.08;1691912;82;21088;-54
2022/05/02 12:16:14;;;;;;;4.33;1.30;;;;;;;21.41;25.50;100727.05;1704772;83;21101;-52
2022/05/02 12:18:50;;;;;;;5.12;2.00;;;;;;;21.49;24.29;100724.31;1709572;82;21415;-53
2022/05/02 12:21:31;;;;;;;3.55;1.50;;;;;;;21.59;25.26;100723.21;1711913;83;21876;-53
2022/05/02 12:23:56;;;;;;;3.37;1.45;;;;;;;21.73;25.21;100717.50;1714743;82;21011;-52
2022/05/02 12:26:23;;;;;;;3.45;1.50;;;;;;;21.78;25.64;100718.58;1692448;83;21050;-52
2022/05/02 12:28:58;;;;;;;5.53;2.10;;;;;;;21.79;25.86;100716.23;1692986;82;21523;-53
2022/05/02 12:31:32;;;;;;;5.20;1.87;;;;;;;21.75;26.15;100710.92;1694494;82;21064;-53
2022/05/02 12:34:06;;;;;;;3.52;1.55;;;;;;;21.76;25.70;100709.09;1696237;84;21631;-52
2022/05/02 12:36:52;;;;;;;5.42;1.90;;;;;;;21.72;25.47;100711.32;1692914;84;21604;-53